Pierreville, Canada
Current Conditions -  °F | °C
As of 4:00 AM on Friday 28 Nov 2014 (Local Time) from CYRQ Reporting Station
Overcast Overcast  
Wind Chill:   Ceiling: 8000
Heat Index: 19°   Visibility: 9mi
Dew Point: 10°   Wind: 8mph
Humidity: 68%   Direction: 350°N
Pressure: 30.04"   Gusts: NA
Location:  46.07°N, 72.8°W
Report Text: CYRQ 280900Z AUTO 35007KT 9SM BKN080 BKN100 OVC120 M07/M12 A3004 RMK SLP177
Loading
Personal Weather Stations






























Interactive Weather Map New forecast layout! Learn more

10-Day Weather Forecast

Advertisements
Track Severe Weather on mobile